createdAt,value
2018-08-17T00:01:49.176Z,98815.12
2018-08-17T00:04:51.549Z,98810.88
2018-08-17T00:07:53.800Z,98811.78
2018-08-17T00:10:56.060Z,98814.03
2018-08-17T00:13:58.232Z,98816.08
2018-08-17T00:17:00.515Z,98816.59
2018-08-17T00:20:02.854Z,98811.63
2018-08-17T00:23:05.201Z,98812.63
2018-08-17T00:26:07.578Z,98811.21
2018-08-17T00:29:09.844Z,98812.34
2018-08-17T00:32:12.100Z,98813.16
2018-08-17T00:35:14.612Z,98814.78
2018-08-17T00:38:16.859Z,98818.73
2018-08-17T00:41:19.277Z,98823.80
2018-08-17T00:44:21.500Z,98821.88
2018-08-17T00:47:23.672Z,98820.25
2018-08-17T00:50:25.954Z,98815.53
2018-08-17T00:53:28.216Z,98822.25
2018-08-17T00:56:30.529Z,98816.67
2018-08-17T00:59:32.877Z,98812.80
2018-08-17T01:02:35.155Z,98810.97
2018-08-17T01:05:37.438Z,98812.29
2018-08-17T01:08:39.666Z,98817.76
2018-08-17T01:11:41.965Z,98815.93
2018-08-17T01:14:44.171Z,98817.95
2018-08-17T01:17:46.522Z,98813.39
2018-08-17T01:20:48.862Z,98811.47
2018-08-17T01:23:51.351Z,98814.30
2018-08-17T01:26:53.723Z,98812.66
2018-08-17T01:29:56.189Z,98818.21
2018-08-17T01:32:58.450Z,98818.58
2018-08-17T01:36:00.744Z,98811.39
2018-08-17T01:39:04.336Z,98812.37
2018-08-17T01:42:06.634Z,98818.77
2018-08-17T01:45:08.862Z,98816.53
2018-08-17T01:48:12.174Z,98818.77
2018-08-17T01:51:14.364Z,98812.30
2018-08-17T01:54:16.529Z,98817.59
2018-08-17T01:57:18.849Z,98819.33
2018-08-17T02:00:21.090Z,98809.20
2018-08-17T02:03:23.319Z,98819.44
2018-08-17T02:06:25.557Z,98818.75
2018-08-17T02:09:27.777Z,98826.05
2018-08-17T02:12:30.163Z,98824.34
2018-08-17T02:15:32.420Z,98825.55
2018-08-17T02:18:34.729Z,98822.11
2018-08-17T02:21:37.018Z,98819.55
2018-08-17T02:24:39.256Z,98817.20
2018-08-17T02:27:42.571Z,98820.72
2018-08-17T02:30:44.791Z,98822.23
2018-08-17T02:33:46.991Z,98816.86
2018-08-17T02:36:49.480Z,98820.92
2018-08-17T02:39:51.748Z,98820.11
2018-08-17T02:42:53.963Z,98818.48
2018-08-17T02:45:56.186Z,98821.27
2018-08-17T02:48:58.381Z,98814.72
2018-08-17T02:52:00.670Z,98819.19
2018-08-17T02:55:02.982Z,98813.64
2018-08-17T02:58:05.233Z,98812.25
2018-08-17T03:01:07.534Z,98815.18
2018-08-17T03:04:09.712Z,98816.30
2018-08-17T03:07:12.056Z,98811.13
2018-08-17T03:10:20.980Z,98811.61
2018-08-17T03:13:23.263Z,98809.17
2018-08-17T03:16:25.461Z,98811.19
2018-08-17T03:19:27.670Z,98806.23
2018-08-17T03:22:29.938Z,98815.27
2018-08-17T03:25:32.252Z,98820.61
2018-08-17T03:28:34.456Z,98816.14
2018-08-17T03:31:36.761Z,98822.09
2018-08-17T03:34:38.979Z,98827.95
2018-08-17T03:37:41.180Z,98822.92
2018-08-17T03:40:43.618Z,98819.40
2018-08-17T03:43:45.792Z,98820.13
2018-08-17T03:46:48.161Z,98828.09
2018-08-17T03:49:50.509Z,98819.28
2018-08-17T03:52:52.730Z,98821.22
2018-08-17T03:55:54.990Z,98825.27
2018-08-17T03:58:57.385Z,98833.35
2018-08-17T04:01:59.729Z,98839.92
2018-08-17T04:05:02.097Z,98844.26
2018-08-17T04:08:05.368Z,98841.31
2018-08-17T04:11:07.545Z,98841.31
2018-08-17T04:14:09.912Z,98845.88
2018-08-17T04:17:12.182Z,98847.58
2018-08-17T04:20:14.388Z,98855.00
2018-08-17T04:23:16.609Z,98865.33
2018-08-17T04:26:18.847Z,98870.75
2018-08-17T04:29:21.086Z,98865.74
2018-08-17T04:32:23.228Z,98869.91
2018-08-17T04:35:25.551Z,98889.23
2018-08-17T04:38:27.840Z,98895.67
2018-08-17T04:41:30.159Z,98902.48
2018-08-17T04:44:32.402Z,98906.30
2018-08-17T04:47:34.594Z,98900.64
2018-08-17T04:50:36.851Z,98898.60
2018-08-17T04:53:39.162Z,98914.42
2018-08-17T04:56:41.335Z,98917.97
2018-08-17T04:59:43.485Z,98919.41
2018-08-17T05:02:45.711Z,98914.70
2018-08-17T05:05:47.907Z,98903.23
2018-08-17T05:08:50.167Z,98901.07
2018-08-17T05:11:52.377Z,98901.61
2018-08-17T05:14:54.646Z,98899.98
2018-08-17T05:17:56.852Z,98901.28
2018-08-17T05:20:59.089Z,98903.64
2018-08-17T05:24:01.326Z,98918.36
2018-08-17T05:27:04.225Z,98932.02
2018-08-17T05:30:06.413Z,98931.31
2018-08-17T05:33:08.696Z,98927.58
2018-08-17T05:36:11.095Z,98936.45
2018-08-17T05:39:13.412Z,98944.48
2018-08-17T05:42:15.725Z,98945.05
2018-08-17T05:45:17.920Z,98955.09
2018-08-17T05:48:20.125Z,98955.23
2018-08-17T05:51:22.363Z,98957.87
2018-08-17T05:54:24.647Z,98963.95
2018-08-17T05:57:26.931Z,98964.87
2018-08-17T06:00:29.185Z,98975.97
2018-08-17T06:03:31.510Z,98977.70
2018-08-17T06:06:34.465Z,98987.95
2018-08-17T06:09:36.801Z,98989.32
2018-08-17T06:12:38.980Z,98993.06
2018-08-17T06:15:41.211Z,98995.08
2018-08-17T06:18:43.442Z,98992.41
2018-08-17T06:21:45.647Z,98996.16
2018-08-17T06:24:48.825Z,98993.31
2018-08-17T06:27:51.058Z,98997.55
2018-08-17T06:30:53.380Z,99005.66
2018-08-17T06:33:55.610Z,99014.16
2018-08-17T06:36:57.791Z,99011.88
2018-08-17T06:40:00.006Z,99023.95
2018-08-17T06:43:02.286Z,99033.44
2018-08-17T06:46:04.518Z,99040.04
2018-08-17T06:49:06.805Z,99038.21
2018-08-17T06:52:09.038Z,99039.30
2018-08-17T06:55:11.990Z,99034.76
2018-08-17T06:58:14.272Z,99047.11
2018-08-17T07:01:16.593Z,99034.75
2018-08-17T07:04:18.805Z,99043.92
2018-08-17T07:07:21.113Z,99044.75
2018-08-17T07:10:23.402Z,99057.20
2018-08-17T07:13:25.759Z,99056.91
2018-08-17T07:16:27.982Z,99066.03
2018-08-17T07:19:30.470Z,99084.94
2018-08-17T07:22:34.619Z,99087.78
2018-08-17T07:25:36.832Z,99084.27
2018-08-17T07:28:39.088Z,99084.94
2018-08-17T07:31:41.354Z,99091.83
2018-08-17T07:34:43.645Z,99093.93
2018-08-17T07:37:45.837Z,99093.03
2018-08-17T07:40:48.045Z,99100.61
2018-08-17T07:43:50.353Z,99092.42
2018-08-17T07:46:52.531Z,99091.31
2018-08-17T07:49:54.734Z,99104.13
2018-08-17T07:52:56.918Z,99110.54
2018-08-17T07:55:59.141Z,99113.97
2018-08-17T07:59:01.484Z,99117.16
2018-08-17T08:02:03.731Z,99119.80
2018-08-17T08:05:07.161Z,99108.51
2018-08-17T08:08:09.511Z,99110.14
2018-08-17T08:11:11.763Z,99114.94
2018-08-17T08:14:14.042Z,99115.63
2018-08-17T08:17:16.182Z,99124.99
2018-08-17T08:20:29.536Z,99128.17
2018-08-17T08:23:31.565Z,99124.64
2018-08-17T08:26:33.760Z,99141.28
2018-08-17T08:29:36.171Z,99144.86
2018-08-17T08:32:39.594Z,99134.34
2018-08-17T08:35:41.771Z,99142.21
2018-08-17T08:38:43.968Z,99142.20
2018-08-17T08:41:46.370Z,99132.28
2018-08-17T08:44:48.644Z,99137.63
2018-08-17T08:47:50.936Z,99133.00
2018-08-17T08:50:53.168Z,99138.90
2018-08-17T08:53:55.465Z,99132.24
2018-08-17T08:56:57.965Z,99135.01
2018-08-17T09:00:00.161Z,99135.66
2018-08-17T09:03:02.345Z,99127.62
2018-08-17T09:06:04.679Z,99136.03
2018-08-17T09:09:07.479Z,99127.73
2018-08-17T09:12:09.742Z,99127.09
2018-08-17T09:15:12.456Z,99131.52
2018-08-17T09:18:14.700Z,99138.80
2018-08-17T09:21:17.069Z,99138.10
2018-08-17T09:24:19.220Z,99133.23
2018-08-17T09:27:21.430Z,99129.78
2018-08-17T09:30:24.743Z,99124.23
2018-08-17T09:33:26.925Z,99116.30
2018-08-17T09:36:29.148Z,99113.56
2018-08-17T09:39:31.402Z,99117.75
2018-08-17T09:42:33.673Z,99109.25
2018-08-17T09:45:36.228Z,99100.17
2018-08-17T09:48:38.567Z,99101.84
2018-08-17T09:51:40.854Z,99101.00
2018-08-17T09:54:43.204Z,99092.77
2018-08-17T09:57:45.478Z,99073.59
2018-08-17T10:00:53.510Z,99071.50
2018-08-17T10:04:01.578Z,99056.27
2018-08-17T10:07:10.381Z,99066.89
2018-08-17T10:10:16.611Z,99058.08
2018-08-17T10:13:18.836Z,99058.92
2018-08-17T10:16:21.090Z,99046.63
2018-08-17T10:19:23.358Z,99043.64
2018-08-17T10:22:25.559Z,99035.52
2018-08-17T10:25:27.823Z,99040.38
2018-08-17T10:28:30.074Z,99037.09
2018-08-17T10:31:32.360Z,99027.14
2018-08-17T10:34:34.560Z,99022.42
2018-08-17T10:37:36.746Z,99025.45
2018-08-17T10:40:39.240Z,99025.19
2018-08-17T10:43:41.437Z,99023.13
2018-08-17T10:46:43.762Z,99022.16
2018-08-17T10:49:45.960Z,99030.01
2018-08-17T10:52:50.650Z,99033.65
2018-08-17T10:55:52.866Z,99041.30
2018-08-17T10:58:55.173Z,99041.58
2018-08-17T11:01:58.436Z,99048.59
2018-08-17T11:05:00.692Z,99033.70
2018-08-17T11:08:03.044Z,99035.53
2018-08-17T11:11:06.475Z,99047.71
2018-08-17T11:14:08.709Z,99047.69
2018-08-17T11:17:11.042Z,99049.45
2018-08-17T11:20:14.503Z,99045.19
2018-08-17T11:23:17.119Z,99036.69
2018-08-17T11:26:19.284Z,99031.86
2018-08-17T11:29:21.449Z,99034.56
2018-08-17T11:32:23.706Z,99033.08
2018-08-17T11:35:25.957Z,99034.02
2018-08-17T11:38:28.306Z,99041.48
2018-08-17T11:41:30.711Z,99042.93
2018-08-17T11:44:32.851Z,99044.86
2018-08-17T11:47:35.149Z,99051.05
2018-08-17T11:50:37.412Z,99056.52
2018-08-17T11:53:39.638Z,99053.92
2018-08-17T11:56:41.942Z,99056.62
2018-08-17T11:59:48.791Z,99048.60
2018-08-17T12:02:51.097Z,99034.61
2018-08-17T12:05:53.373Z,99036.77
2018-08-17T12:08:55.757Z,99034.55
2018-08-17T12:11:57.999Z,99026.63
2018-08-17T12:15:00.583Z,99019.20
2018-08-17T12:18:02.884Z,99037.34
2018-08-17T12:21:05.240Z,99032.16
2018-08-17T12:24:07.640Z,99035.33
2018-08-17T12:27:11.042Z,99036.62
2018-08-17T12:30:13.324Z,99042.81
2018-08-17T12:33:15.547Z,99025.93
2018-08-17T12:36:17.897Z,99035.63
2018-08-17T12:39:20.455Z,99043.13
2018-08-17T12:42:22.851Z,99025.35
2018-08-17T12:45:57.473Z,99037.73
2018-08-17T12:48:59.764Z,99036.73
2018-08-17T12:52:01.970Z,99036.69
2018-08-17T12:55:05.113Z,99044.58
2018-08-17T12:58:07.426Z,99037.74
2018-08-17T13:01:09.658Z,99051.48
2018-08-17T13:04:12.595Z,99047.84
2018-08-17T13:07:14.968Z,99052.45
2018-08-17T13:10:17.502Z,99052.36
2018-08-17T13:13:19.824Z,99057.59
2018-08-17T13:16:22.043Z,99058.26
2018-08-17T13:19:24.262Z,99060.72
2018-08-17T13:22:26.464Z,99049.70
2018-08-17T13:25:28.788Z,99055.60
2018-08-17T13:28:31.120Z,99057.31
2018-08-17T13:31:33.401Z,99061.05
2018-08-17T13:34:35.620Z,99045.41
2018-08-17T13:37:38.018Z,99053.44
2018-08-17T13:40:40.224Z,99043.55
2018-08-17T13:43:42.682Z,99050.16
2018-08-17T13:46:44.900Z,99057.51
2018-08-17T13:49:47.078Z,99063.86
2018-08-17T13:52:49.321Z,99059.89
2018-08-17T13:55:51.657Z,99045.56
2018-08-17T13:58:53.883Z,99055.26
2018-08-17T14:01:56.111Z,99059.25
2018-08-17T14:04:59.538Z,99067.22
2018-08-17T14:08:01.742Z,99073.93
2018-08-17T14:11:04.082Z,99081.95
2018-08-17T14:14:06.321Z,99080.07
2018-08-17T14:17:08.728Z,99076.08
2018-08-17T14:20:13.866Z,99082.00
2018-08-17T14:23:16.172Z,99078.47
2018-08-17T14:26:18.479Z,99089.38
2018-08-17T14:29:20.777Z,99088.91
2018-08-17T14:32:23.084Z,99099.89
2018-08-17T14:35:25.504Z,99095.55
2018-08-17T14:38:29.023Z,99097.90
2018-08-17T14:41:31.269Z,99088.85
2018-08-17T14:44:34.819Z,99102.88
2018-08-17T14:51:43.156Z,99109.49
2018-08-17T14:54:45.468Z,99120.96
2018-08-17T14:57:47.710Z,99122.08
2018-08-17T15:00:49.970Z,99117.39
2018-08-17T15:03:52.204Z,99121.78
2018-08-17T15:06:55.817Z,99117.53
2018-08-17T15:09:58.213Z,99134.41
2018-08-17T15:13:00.503Z,99123.59
2018-08-17T15:16:02.835Z,99120.39
2018-08-17T15:19:05.204Z,99127.80
2018-08-17T15:22:07.548Z,99135.09
2018-08-17T15:25:09.873Z,99130.44
2018-08-17T15:28:12.302Z,99129.75
2018-08-17T15:31:14.847Z,99124.62
2018-08-17T15:34:17.175Z,99135.08
2018-08-17T15:37:19.639Z,99122.28
2018-08-17T15:40:21.994Z,99144.66
2018-08-17T15:43:24.336Z,99148.03
2018-08-17T15:46:26.769Z,99138.64
2018-08-17T15:49:34.954Z,99149.92
2018-08-17T15:52:37.278Z,99142.31
2018-08-17T15:55:39.554Z,99154.98
2018-08-17T15:58:41.808Z,99158.11
2018-08-17T16:01:44.217Z,99162.86
2018-08-17T16:04:46.580Z,99148.05
2018-08-17T16:07:48.727Z,99163.32
2018-08-17T16:10:51.061Z,99158.55
2018-08-17T16:13:53.379Z,99157.24
2018-08-17T16:16:55.658Z,99153.33
2018-08-17T16:19:57.977Z,99167.83
2018-08-17T16:23:01.426Z,99157.45
2018-08-17T16:26:03.861Z,99164.88
2018-08-17T16:29:06.250Z,99166.67
2018-08-17T16:32:08.490Z,99174.04
2018-08-17T16:35:11.185Z,99175.99
2018-08-17T16:38:13.495Z,99180.78
2018-08-17T16:41:15.693Z,99174.72
2018-08-17T16:44:17.914Z,99188.22
2018-08-17T16:47:20.278Z,99186.91
2018-08-17T16:50:22.617Z,99184.60
2018-08-17T16:53:24.907Z,99190.48
2018-08-17T16:56:30.109Z,99193.33
2018-08-17T16:59:32.317Z,99187.13
2018-08-17T17:02:34.509Z,99188.06
2018-08-17T17:05:36.796Z,99188.30
2018-08-17T17:08:39.015Z,99197.95
2018-08-17T17:11:41.291Z,99200.44
2018-08-17T17:14:44.129Z,99199.85
2018-08-17T17:17:54.519Z,99195.19
2018-08-17T17:20:56.697Z,99201.77
2018-08-17T17:23:59.385Z,99198.67
2018-08-17T17:27:01.894Z,99205.33
2018-08-17T17:30:05.444Z,99204.38
2018-08-17T17:33:07.928Z,99209.50
2018-08-17T17:36:10.142Z,99208.80
2018-08-17T17:39:13.638Z,99221.38
2018-08-17T17:42:15.790Z,99230.82
2018-08-17T17:45:17.974Z,99231.14
2018-08-17T17:48:20.128Z,99242.14
2018-08-17T17:51:22.300Z,99248.70
2018-08-17T17:54:25.302Z,99246.03
2018-08-17T17:57:27.501Z,99264.06
2018-08-17T18:00:30.071Z,99258.39
2018-08-17T18:03:32.225Z,99267.97
2018-08-17T18:06:34.415Z,99271.66
2018-08-17T18:09:36.674Z,99270.03
2018-08-17T18:12:38.903Z,99270.74
2018-08-17T18:15:41.141Z,99269.93
2018-08-17T18:18:43.371Z,99272.18
2018-08-17T18:21:45.674Z,99275.05
2018-08-17T18:24:47.924Z,99282.56
2018-08-17T18:27:50.114Z,99288.59
2018-08-17T18:30:52.417Z,99287.84
2018-08-17T18:33:54.682Z,99289.20
2018-08-17T18:36:56.964Z,99298.72
2018-08-17T18:39:59.213Z,99299.19
2018-08-17T18:43:01.472Z,99307.31
2018-08-17T18:46:03.765Z,99310.52
2018-08-17T18:49:06.242Z,99314.39
2018-08-17T18:52:08.532Z,99327.81
2018-08-17T18:55:10.816Z,99336.66
2018-08-17T18:58:13.014Z,99334.89
2018-08-17T19:01:15.250Z,99341.73
2018-08-17T19:04:17.630Z,99344.75
2018-08-17T19:07:19.931Z,99347.64
2018-08-17T19:10:22.183Z,99356.61
2018-08-17T19:13:24.449Z,99362.94
2018-08-17T19:16:26.745Z,99363.58
2018-08-17T19:19:28.962Z,99371.18
2018-08-17T19:22:36.628Z,99375.75
2018-08-17T19:25:39.722Z,99366.23
2018-08-17T19:28:42.016Z,99376.56
2018-08-17T19:31:50.100Z,99375.31
2018-08-17T19:34:52.305Z,99374.29
2018-08-17T19:37:54.562Z,99372.70
2018-08-17T19:40:57.616Z,99379.85
2018-08-17T19:43:59.806Z,99374.25
2018-08-17T19:47:02.227Z,99379.52
2018-08-17T19:50:04.573Z,99376.83
2018-08-17T19:53:06.930Z,99389.23
2018-08-17T19:56:09.395Z,99391.14
2018-08-17T19:59:11.663Z,99387.66
2018-08-17T20:02:13.894Z,99394.19
2018-08-17T20:05:16.124Z,99395.45
2018-08-17T20:08:18.463Z,99399.87
2018-08-17T20:11:20.738Z,99404.23
2018-08-17T20:14:22.939Z,99402.22
2018-08-17T20:17:25.285Z,99403.81
2018-08-17T20:20:27.473Z,99401.41
2018-08-17T20:23:29.810Z,99406.61
2018-08-17T20:26:32.446Z,99401.06
2018-08-17T20:29:34.428Z,99400.38
2018-08-17T20:32:36.637Z,99404.95
2018-08-17T20:35:38.946Z,99408.81
2018-08-17T20:38:41.349Z,99413.70
2018-08-17T20:41:43.629Z,99413.09
2018-08-17T20:44:45.782Z,99420.00
2018-08-17T20:47:48.059Z,99417.45
2018-08-17T20:50:50.213Z,99422.20
2018-08-17T20:53:54.629Z,99421.67
2018-08-17T20:56:57.054Z,99431.02
2018-08-17T20:59:59.254Z,99422.69
2018-08-17T21:03:01.702Z,99441.49
2018-08-17T21:06:04.047Z,99435.20
2018-08-17T21:09:06.998Z,99445.02
2018-08-17T21:12:09.298Z,99446.03
2018-08-17T21:15:11.619Z,99451.83
2018-08-17T21:18:13.810Z,99450.83
2018-08-17T21:21:16.102Z,99456.73
2018-08-17T21:24:18.404Z,99469.55
2018-08-17T21:27:20.750Z,99473.92
2018-08-17T21:30:23.001Z,99475.66
2018-08-17T21:33:25.284Z,99479.14
2018-08-17T21:36:27.480Z,99480.77
2018-08-17T21:39:29.785Z,99491.15
2018-08-17T21:42:31.974Z,99483.61
2018-08-17T21:45:34.190Z,99491.14
2018-08-17T21:48:37.448Z,99486.24
2018-08-17T21:51:39.640Z,99483.00
2018-08-17T21:54:41.888Z,99484.63
2018-08-17T21:57:44.114Z,99486.97
2018-08-17T22:00:46.370Z,99488.19
2018-08-17T22:03:48.638Z,99475.95
2018-08-17T22:06:50.924Z,99477.39
2018-08-17T22:09:53.734Z,99483.50
2018-08-17T22:12:55.975Z,99490.33
2018-08-17T22:15:58.422Z,99490.34
2018-08-17T22:19:00.710Z,99491.45
2018-08-17T22:22:02.875Z,99495.02
2018-08-17T22:25:10.921Z,99500.20
2018-08-17T22:28:13.298Z,99498.37
2018-08-17T22:31:18.965Z,99503.97
2018-08-17T22:34:21.149Z,99504.77
2018-08-17T22:37:23.472Z,99508.13
2018-08-17T22:40:25.674Z,99509.88
2018-08-17T22:43:27.920Z,99510.78
2018-08-17T22:46:30.165Z,99517.30
2018-08-17T22:49:32.883Z,99511.61
2018-08-17T22:52:35.154Z,99513.75
2018-08-17T22:55:37.403Z,99514.56
2018-08-17T22:58:45.168Z,99516.70
2018-08-17T23:01:47.350Z,99518.19
2018-08-17T23:04:49.672Z,99515.52
2018-08-17T23:07:51.985Z,99520.70
2018-08-17T23:10:54.339Z,99524.84
2018-08-17T23:13:59.337Z,99532.77
2018-08-17T23:17:01.722Z,99529.05
2018-08-17T23:20:04.730Z,99532.83
2018-08-17T23:23:07.340Z,99530.48
2018-08-17T23:26:09.552Z,99523.47
2018-08-17T23:29:11.833Z,99513.59
2018-08-17T23:32:14.065Z,99507.69
2018-08-17T23:35:16.443Z,99505.84
2018-08-17T23:38:18.734Z,99515.98
2018-08-17T23:41:21.109Z,99512.75
2018-08-17T23:44:23.340Z,99513.09
2018-08-17T23:47:25.533Z,99516.39
2018-08-17T23:50:27.794Z,99515.97
2018-08-17T23:53:30.113Z,99513.33
2018-08-17T23:56:32.332Z,99516.36
2018-08-17T23:59:34.563Z,99509.65
